Time;durP1;ratioP1;P1;durP2;ratioP2;P2;SDS_P1;SDS_P2;PMS_P1;PMS_P2;Temp;Humidity;BMP_temperature;BMP_pressure;BME280_temperature;BME280_humidity;BME280_pressure;Samples;Min_cycle;Max_cycle;Signal;HPM_P1;HPM_P2
2021/08/01 00:01:04;;;;;;;5.55;2.10;;;;;;;21.39;55.60;99721.38;5033946;28;20417;-80
2021/08/01 00:03:30;;;;;;;3.90;2.38;;;;;;;21.35;55.39;99729.50;5035012;28;20498;-80
2021/08/01 00:05:55;;;;;;;3.25;2.10;;;;;;;21.33;55.63;99718.00;5033816;28;20913;-80
2021/08/01 00:08:21;;;;;;;3.70;1.73;;;;;;;21.26;55.84;99716.91;5034166;28;20426;-80
2021/08/01 00:10:47;;;;;;;5.35;2.60;;;;;;;21.21;56.04;99710.44;5033664;28;20441;-80
2021/08/01 00:13:12;;;;;;;4.00;1.85;;;;;;;21.20;55.93;99713.56;5033923;28;20414;-80
2021/08/01 00:15:38;;;;;;;2.50;2.00;;;;;;;21.12;55.85;99712.47;5033478;28;20395;-80
2021/08/01 00:18:03;;;;;;;4.30;2.05;;;;;;;21.12;55.88;99722.66;5033966;28;20391;-80
2021/08/01 00:20:29;;;;;;;3.33;2.23;;;;;;;21.11;56.04;99710.03;5034352;28;20866;-80
2021/08/01 00:22:55;;;;;;;5.45;2.15;;;;;;;21.09;56.09;99709.53;5033635;28;20494;-80
2021/08/01 00:25:23;;;;;;;2.20;1.70;;;;;;;21.05;55.92;99708.56;5033664;28;20530;-79
2021/08/01 00:27:49;;;;;;;4.43;2.00;;;;;;;21.01;56.14;99711.19;5033655;28;20425;-80
2021/08/01 00:30:15;;;;;;;4.47;1.92;;;;;;;20.97;56.21;99707.50;5032470;28;20484;-80
2021/08/01 00:32:43;;;;;;;3.20;1.80;;;;;;;20.95;56.44;99703.44;5033768;28;20395;-81
2021/08/01 00:35:09;;;;;;;6.47;2.22;;;;;;;20.91;56.42;99697.78;5033180;28;20881;-80
2021/08/01 00:37:34;;;;;;;4.72;2.35;;;;;;;20.92;56.57;99691.13;5037550;28;20404;-80
2021/08/01 00:39:59;;;;;;;2.90;2.10;;;;;;;20.95;56.63;99695.97;5039491;28;20403;-80
2021/08/01 00:42:25;;;;;;;2.77;2.07;;;;;;;20.98;56.73;99689.00;5033431;28;20782;-80
2021/08/01 00:44:50;;;;;;;5.03;2.10;;;;;;;20.99;57.07;99690.63;5033176;28;20407;-81
2021/08/01 00:47:15;;;;;;;4.65;2.10;;;;;;;21.02;57.12;99696.28;5033471;28;20530;-80
2021/08/01 00:49:44;;;;;;;3.93;2.60;;;;;;;21.04;57.48;99682.97;5033277;28;20518;-80
2021/08/01 00:52:10;;;;;;;3.67;2.10;;;;;;;20.99;57.61;99682.34;5033421;28;20441;-80
2021/08/01 00:54:35;;;;;;;2.30;2.10;;;;;;;20.91;58.01;99685.97;5033408;28;20418;-80
2021/08/01 00:57:03;;;;;;;4.23;2.63;;;;;;;20.85;58.15;99684.53;5032958;28;20449;-80
2021/08/01 00:59:37;;;;;;;3.25;2.85;;;;;;;20.92;58.55;99682.06;5032905;28;20457;-80
2021/08/01 01:02:05;;;;;;;5.20;2.80;;;;;;;21.00;58.47;99679.28;5033328;28;20430;-79
2021/08/01 01:04:42;;;;;;;7.35;3.00;;;;;;;21.04;58.73;99671.94;5033163;28;20793;-80
2021/08/01 01:07:13;;;;;;;4.15;2.80;;;;;;;21.05;58.99;99672.75;5033060;28;20390;-80
2021/08/01 01:09:56;;;;;;;4.63;2.75;;;;;;;21.00;59.31;99675.72;5032495;28;20403;-79
2021/08/01 01:12:29;;;;;;;3.95;2.70;;;;;;;20.93;59.67;99687.25;5032938;28;20412;-80
2021/08/01 01:14:58;;;;;;;4.50;2.30;;;;;;;20.90;59.70;99679.66;5032945;28;20388;-79
2021/08/01 01:17:30;;;;;;;2.22;2.13;;;;;;;20.93;59.52;99680.94;5032794;28;20427;-80
2021/08/01 01:20:19;;;;;;;3.97;2.23;;;;;;;20.97;59.43;99692.91;5031373;28;20910;-80
2021/08/01 01:22:52;;;;;;;2.85;2.38;;;;;;;20.92;59.83;99671.84;5032339;28;20419;-80
2021/08/01 01:25:39;;;;;;;2.60;2.22;;;;;;;20.89;59.60;99683.53;5032434;28;20407;-80
2021/08/01 01:28:20;;;;;;;5.07;2.67;;;;;;;20.91;59.50;99684.00;5032728;28;20403;-80
2021/08/01 01:30:51;;;;;;;3.25;2.80;;;;;;;20.95;59.57;99684.97;5032354;28;20500;-79
2021/08/01 01:33:24;;;;;;;4.40;2.38;;;;;;;20.98;59.56;99681.53;5032030;28;20407;-79
2021/08/01 01:35:53;;;;;;;2.83;2.60;;;;;;;20.99;60.07;99688.69;5047789;28;20457;-79
2021/08/01 01:38:20;;;;;;;5.30;2.40;;;;;;;20.96;60.54;99689.34;5031868;28;20473;-79
2021/08/01 01:40:53;;;;;;;6.53;2.50;;;;;;;20.91;59.85;99688.72;5032345;28;20410;-79
2021/08/01 01:43:20;;;;;;;4.57;2.58;;;;;;;20.84;59.84;99694.75;5031985;28;20889;-81
2021/08/01 01:45:48;;;;;;;2.85;2.22;;;;;;;20.69;60.13;99695.28;5032760;28;20395;-80
2021/08/01 01:48:14;;;;;;;2.85;2.17;;;;;;;20.59;60.44;99690.97;5031736;28;20944;-80
2021/08/01 01:50:39;;;;;;;5.93;2.80;;;;;;;20.61;60.60;99696.94;5031676;28;20493;-80
2021/08/01 01:53:05;;;;;;;5.90;2.50;;;;;;;20.68;60.09;99688.97;5031853;28;20806;-80
2021/08/01 01:55:32;;;;;;;2.88;2.60;;;;;;;20.73;60.53;99693.50;5030673;28;20478;-79
2021/08/01 01:57:57;;;;;;;3.83;2.43;;;;;;;20.71;61.25;99691.06;5031905;28;21188;-79
2021/08/01 02:00:24;;;;;;;3.30;2.40;;;;;;;20.63;61.25;99689.16;5031763;28;20536;-79
2021/08/01 02:02:49;;;;;;;4.30;2.47;;;;;;;20.58;61.38;99681.06;5032464;28;20502;-79
2021/08/01 02:05:14;;;;;;;3.57;2.50;;;;;;;20.61;61.68;99680.41;5031858;28;20481;-79
2021/08/01 02:07:40;;;;;;;4.95;2.60;;;;;;;20.66;61.51;99676.69;5031997;28;20394;-79
2021/08/01 02:10:13;;;;;;;3.20;2.87;;;;;;;20.69;61.50;99678.78;5031583;28;20391;-79
2021/08/01 02:12:51;;;;;;;4.75;2.38;;;;;;;20.69;61.34;99679.59;5011027;28;20403;-79
2021/08/01 02:15:19;;;;;;;2.15;2.05;;;;;;;20.71;61.61;99680.06;5019235;28;20435;-79
2021/08/01 02:18:06;;;;;;;3.90;2.20;;;;;;;20.67;61.79;99681.88;5031836;28;20391;-80
2021/08/01 02:20:37;;;;;;;2.83;2.00;;;;;;;20.61;62.11;99688.69;5032627;28;20425;-79
2021/08/01 02:23:05;;;;;;;5.03;2.77;;;;;;;20.53;62.27;99695.03;5031765;28;20831;-79
2021/08/01 02:25:30;;;;;;;3.65;2.25;;;;;;;20.46;62.50;99691.97;5030672;28;20403;-79
2021/08/01 02:27:58;;;;;;;3.30;2.38;;;;;;;20.48;62.30;99686.16;5031392;28;20469;-80
2021/08/01 02:30:26;;;;;;;4.95;2.45;;;;;;;20.45;62.84;99682.09;5031500;28;20470;-80
2021/08/01 02:32:53;;;;;;;2.85;2.58;;;;;;;20.43;62.67;99684.38;5031580;28;20391;-80
2021/08/01 02:35:19;;;;;;;3.28;2.30;;;;;;;20.39;63.10;99680.66;5031160;28;20441;-80
2021/08/01 02:37:45;;;;;;;4.03;2.40;;;;;;;20.38;63.48;99675.50;5030758;28;20891;-80
2021/08/01 02:40:12;;;;;;;3.10;2.60;;;;;;;20.39;63.70;99680.66;5031553;28;20398;-80
2021/08/01 02:42:40;;;;;;;6.45;2.60;;;;;;;20.40;63.92;99678.72;5031079;28;20430;-80
2021/08/01 02:45:06;;;;;;;6.22;3.20;;;;;;;20.41;64.07;99677.59;5031314;28;20887;-80
2021/08/01 02:47:33;;;;;;;3.13;2.45;;;;;;;20.40;64.06;99675.97;5031288;28;20541;-80
2021/08/01 02:50:00;;;;;;;3.97;2.40;;;;;;;20.42;64.44;99670.94;5031367;28;20450;-80
2021/08/01 02:52:41;;;;;;;2.65;2.47;;;;;;;20.42;65.02;99677.25;5031060;28;20894;-80
2021/08/01 02:55:11;;;;;;;4.80;2.57;;;;;;;20.42;64.89;99681.94;5031536;28;20457;-80
2021/08/01 02:57:39;;;;;;;4.43;2.90;;;;;;;20.37;64.93;99676.63;5031116;28;20883;-80
2021/08/01 03:00:04;;;;;;;4.40;3.20;;;;;;;20.36;65.17;99681.31;5013062;28;20442;-80
2021/08/01 03:02:32;;;;;;;3.25;2.88;;;;;;;20.33;65.31;99683.91;5015623;28;20499;-80
2021/08/01 03:04:58;;;;;;;6.85;3.70;;;;;;;20.30;65.84;99679.88;5032915;28;20875;-80
2021/08/01 03:07:24;;;;;;;5.88;3.40;;;;;;;20.29;66.13;99674.69;5035345;28;20747;-80
2021/08/01 03:09:54;;;;;;;3.70;2.80;;;;;;;20.27;66.41;99675.03;5035171;28;20877;-81
2021/08/01 03:12:22;;;;;;;5.10;3.00;;;;;;;20.25;66.15;99674.53;5035449;28;20411;-80
2021/08/01 03:14:47;;;;;;;3.43;3.10;;;;;;;20.24;66.31;99680.34;5034338;28;20772;-81
2021/08/01 03:17:13;;;;;;;5.32;2.78;;;;;;;20.17;66.36;99681.66;5035136;28;20394;-80
2021/08/01 03:19:41;;;;;;;5.10;2.93;;;;;;;20.10;66.74;99688.78;5034654;28;20395;-81
2021/08/01 03:22:07;;;;;;;4.28;3.00;;;;;;;20.07;67.13;99689.44;5035053;28;20472;-81
2021/08/01 03:24:33;;;;;;;4.30;3.27;;;;;;;20.02;66.86;99684.13;5034822;28;20435;-81
2021/08/01 03:26:58;;;;;;;3.55;2.95;;;;;;;19.99;67.49;99677.31;5035086;28;20712;-81
2021/08/01 03:29:24;;;;;;;4.70;3.73;;;;;;;20.00;67.63;99680.88;5040586;28;20399;-82
2021/08/01 03:31:51;;;;;;;4.13;3.58;;;;;;;20.01;67.59;99693.50;5034359;28;20395;-82
2021/08/01 03:34:17;;;;;;;3.60;2.80;;;;;;;19.94;66.93;99682.19;5033569;28;20514;-82
2021/08/01 03:36:42;;;;;;;3.97;2.80;;;;;;;19.84;67.41;99680.59;5034750;28;20926;-82
2021/08/01 03:39:07;;;;;;;4.67;2.90;;;;;;;19.85;67.61;99684.16;5034904;28;20843;-82
2021/08/01 03:41:33;;;;;;;5.77;3.30;;;;;;;19.85;68.08;99684.97;5034301;28;20409;-82
2021/08/01 03:43:58;;;;;;;4.47;3.25;;;;;;;19.86;67.96;99692.06;5034898;28;20461;-82
2021/08/01 03:46:23;;;;;;;4.23;4.03;;;;;;;19.88;68.37;99689.81;5034172;28;20497;-82
2021/08/01 03:48:49;;;;;;;4.57;3.23;;;;;;;19.89;68.13;99679.63;5034452;28;20727;-82
2021/08/01 03:51:14;;;;;;;4.00;3.17;;;;;;;19.91;68.41;99688.34;5034419;28;20829;-82
2021/08/01 03:53:40;;;;;;;3.93;3.07;;;;;;;19.91;68.36;99688.34;5034494;28;20386;-82
2021/08/01 03:56:05;;;;;;;6.23;3.53;;;;;;;19.87;67.96;99692.88;5034309;28;20402;-82
2021/08/01 03:58:30;;;;;;;8.73;3.70;;;;;;;19.84;68.33;99693.53;5033850;28;20469;-82
2021/08/01 04:00:56;;;;;;;4.95;3.47;;;;;;;19.83;68.23;99697.38;5034438;28;20580;-82
2021/08/01 04:03:21;;;;;;;3.47;3.17;;;;;;;19.86;68.31;99696.75;5049331;28;20422;-82
2021/08/01 04:05:47;;;;;;;5.72;3.05;;;;;;;19.88;68.08;99700.81;5034213;28;20391;-82
2021/08/01 04:08:12;;;;;;;3.70;3.00;;;;;;;19.88;68.16;99697.25;5034160;28;20387;-82
2021/08/01 04:10:37;;;;;;;4.33;3.10;;;;;;;19.88;68.49;99702.75;5033878;28;20386;-82
2021/08/01 04:13:03;;;;;;;6.47;3.40;;;;;;;19.82;68.90;99704.84;5033677;28;20399;-81
2021/08/01 04:15:29;;;;;;;5.53;3.20;;;;;;;19.77;69.09;99695.94;5033713;28;20863;-82
2021/08/01 04:17:54;;;;;;;9.50;3.53;;;;;;;19.71;69.11;99703.56;5034229;28;20399;-81
2021/08/01 04:20:19;;;;;;;5.47;3.07;;;;;;;19.68;69.08;99699.53;5034166;28;20930;-82
2021/08/01 04:22:45;;;;;;;5.40;3.50;;;;;;;19.68;69.46;99702.28;5033912;28;20423;-82
2021/08/01 04:25:10;;;;;;;5.40;3.63;;;;;;;19.66;69.39;99692.69;5033449;28;20423;-82
2021/08/01 04:27:36;;;;;;;7.37;3.30;;;;;;;19.65;68.70;99697.41;5033080;28;20413;-81
2021/08/01 04:30:01;;;;;;;4.75;3.00;;;;;;;19.61;69.16;99703.88;5033761;28;20574;-82
2021/08/01 04:32:27;;;;;;;4.13;3.10;;;;;;;19.60;69.47;99703.06;5033751;28;20395;-81
2021/08/01 04:34:52;;;;;;;5.88;3.00;;;;;;;19.67;69.25;99703.38;5033844;28;20399;-82
2021/08/01 04:37:17;;;;;;;5.10;2.83;;;;;;;19.72;69.19;99702.44;5053153;28;20829;-81
2021/08/01 04:39:43;;;;;;;6.23;3.10;;;;;;;19.75;69.13;99703.72;5035107;28;20736;-82
2021/08/01 04:42:08;;;;;;;8.97;3.50;;;;;;;19.73;69.26;99715.03;5033190;28;20465;-81
2021/08/01 04:44:33;;;;;;;4.23;2.90;;;;;;;19.71;69.36;99709.06;5033168;28;20409;-81
2021/08/01 04:46:58;;;;;;;5.67;2.80;;;;;;;19.71;69.47;99717.28;5033174;28;20445;-81
2021/08/01 04:49:24;;;;;;;6.90;2.90;;;;;;;19.72;69.31;99712.63;5033394;28;20391;-81
2021/08/01 04:51:49;;;;;;;3.87;3.20;;;;;;;19.72;69.30;99713.44;5033360;28;20392;-81
2021/08/01 04:54:14;;;;;;;5.30;2.40;;;;;;;19.70;68.85;99712.94;5033466;28;20437;-81
2021/08/01 04:56:46;;;;;;;6.67;3.13;;;;;;;19.63;69.00;99710.66;5033281;28;20394;-81
2021/08/01 04:59:12;;;;;;;5.72;2.67;;;;;;;19.59;69.20;99717.13;5032504;28;20409;-81
2021/08/01 05:01:37;;;;;;;5.40;3.40;;;;;;;19.47;69.30;99720.50;5032525;28;20878;-81
2021/08/01 05:04:03;;;;;;;5.60;3.30;;;;;;;19.47;69.36;99720.50;5032752;28;20468;-81
2021/08/01 05:06:28;;;;;;;5.17;3.13;;;;;;;19.52;68.98;99722.31;5032453;28;20398;-80
2021/08/01 05:08:54;;;;;;;6.53;3.07;;;;;;;19.49;69.19;99715.50;5032792;28;20913;-80
2021/08/01 05:11:19;;;;;;;2.92;2.50;;;;;;;19.55;69.17;99721.66;5032690;28;20548;-80
2021/08/01 05:13:44;;;;;;;5.00;2.90;;;;;;;19.52;69.40;99725.88;5032739;28;20411;-81
2021/08/01 05:16:15;;;;;;;3.67;2.90;;;;;;;19.51;69.52;99718.75;5032376;28;20943;-81
2021/08/01 05:18:40;;;;;;;4.00;3.15;;;;;;;19.52;69.55;99716.81;5038402;28;20399;-81
2021/08/01 05:21:06;;;;;;;5.60;3.77;;;;;;;19.51;69.96;99724.25;5032184;28;20395;-81
2021/08/01 05:23:31;;;;;;;4.73;2.90;;;;;;;19.43;70.57;99724.25;5031017;28;20446;-81
2021/08/01 05:25:57;;;;;;;4.23;3.20;;;;;;;19.31;70.95;99730.31;5032166;28;20407;-81
2021/08/01 05:28:23;;;;;;;4.25;2.95;;;;;;;19.27;71.11;99728.50;5024719;28;20399;-81
2021/08/01 05:30:48;;;;;;;6.47;3.20;;;;;;;19.32;70.84;99723.69;5032496;28;20392;-81
2021/08/01 05:33:13;;;;;;;3.70;2.90;;;;;;;19.40;70.89;99722.91;5032061;28;20399;-81
2021/08/01 05:35:39;;;;;;;6.87;2.77;;;;;;;19.50;70.33;99713.56;5032206;28;20407;-81
2021/08/01 05:38:05;;;;;;;7.38;3.08;;;;;;;19.47;69.90;99717.75;5032087;28;20403;-81
2021/08/01 05:40:30;;;;;;;5.47;2.60;;;;;;;19.39;70.06;99718.53;5032065;28;20454;-81
2021/08/01 05:42:56;;;;;;;4.50;2.67;;;;;;;19.38;69.89;99714.16;5031942;28;20419;-82
2021/08/01 05:45:21;;;;;;;3.07;2.30;;;;;;;19.29;69.66;99712.53;5038523;28;20465;-81
2021/08/01 05:47:46;;;;;;;3.63;2.40;;;;;;;19.32;69.67;99709.16;5031585;28;20399;-81
2021/08/01 05:50:12;;;;;;;5.20;2.50;;;;;;;19.38;69.33;99714.16;5031460;28;20801;-80
2021/08/01 05:52:37;;;;;;;4.43;2.40;;;;;;;19.38;68.66;99719.66;5031580;28;20461;-81
2021/08/01 05:55:03;;;;;;;3.47;2.13;;;;;;;19.25;68.33;99725.28;5031479;28;20403;-81
2021/08/01 05:57:28;;;;;;;2.80;2.10;;;;;;;19.32;67.24;99720.94;5031255;28;20403;-81
2021/08/01 05:59:53;;;;;;;3.90;2.30;;;;;;;19.38;67.65;99724.34;5031825;28;20870;-81
2021/08/01 06:02:19;;;;;;;2.20;2.00;;;;;;;19.44;67.19;99731.31;5033012;28;20474;-81
2021/08/01 06:04:44;;;;;;;3.17;2.00;;;;;;;19.38;66.93;99740.81;5030798;28;20431;-81
2021/08/01 06:07:09;;;;;;;4.47;2.17;;;;;;;19.39;66.69;99742.47;5031401;28;20805;-81
2021/08/01 06:09:38;;;;;;;3.15;1.40;;;;;;;19.48;66.43;99740.56;5031026;28;20407;-81
2021/08/01 06:12:05;;;;;;;2.97;1.40;;;;;;;19.47;65.39;99737.00;5032043;28;20384;-81
2021/08/01 06:14:31;;;;;;;3.33;1.63;;;;;;;19.38;65.24;99743.56;5031355;28;20399;-81
2021/08/01 06:16:56;;;;;;;1.60;1.50;;;;;;;19.44;64.23;99742.31;5031829;28;20913;-81
2021/08/01 06:19:21;;;;;;;2.23;1.50;;;;;;;19.32;63.90;99747.59;5031085;28;20394;-81
2021/08/01 06:21:46;;;;;;;2.23;1.60;;;;;;;19.39;63.19;99753.44;5031675;28;20415;-79
2021/08/01 06:24:12;;;;;;;4.75;1.15;;;;;;;19.44;62.90;99751.38;5029535;28;20522;-80
2021/08/01 06:26:38;;;;;;;1.50;1.40;;;;;;;19.43;63.22;99754.47;5026114;28;20418;-80
2021/08/01 06:29:03;;;;;;;3.45;1.40;;;;;;;19.35;63.61;99766.19;5029328;28;20469;-80
2021/08/01 06:31:30;;;;;;;2.67;1.33;;;;;;;19.41;64.09;99759.44;5030783;28;20909;-80
2021/08/01 06:33:58;;;;;;;3.00;1.30;;;;;;;19.47;63.31;99755.41;5030643;28;20475;-81
2021/08/01 06:36:23;;;;;;;2.00;1.35;;;;;;;19.50;63.51;99760.28;5029917;28;20403;-79
2021/08/01 06:38:48;;;;;;;1.87;1.77;;;;;;;19.47;63.55;99756.22;5029438;28;20754;-80
2021/08/01 06:41:14;;;;;;;4.03;1.30;;;;;;;19.42;64.40;99759.16;5030681;28;20742;-79
2021/08/01 06:43:39;;;;;;;1.43;1.33;;;;;;;19.42;64.19;99764.63;5031015;28;20468;-80
2021/08/01 06:46:05;;;;;;;3.20;2.17;;;;;;;19.49;64.39;99764.16;5026473;28;20441;-80
2021/08/01 06:48:30;;;;;;;1.80;1.50;;;;;;;19.55;63.95;99768.38;5032108;28;20412;-80
2021/08/01 06:50:56;;;;;;;2.87;1.60;;;;;;;19.61;64.74;99781.66;5029052;28;20418;-80
2021/08/01 06:53:21;;;;;;;1.70;1.23;;;;;;;19.71;64.38;99775.03;5030531;28;20410;-80
2021/08/01 06:55:47;;;;;;;2.13;1.70;;;;;;;19.75;64.78;99775.19;5028006;28;20490;-80
2021/08/01 06:58:16;;;;;;;2.50;1.60;;;;;;;19.79;65.64;99779.72;5029589;28;20770;-80
2021/08/01 07:00:45;;;;;;;3.95;1.85;;;;;;;19.71;66.55;99786.03;5030693;28;20747;-80
2021/08/01 07:03:10;;;;;;;2.63;1.70;;;;;;;19.57;67.42;99785.34;5012995;28;20508;-79
2021/08/01 07:05:35;;;;;;;1.40;1.23;;;;;;;19.57;67.03;99779.84;5030094;28;20449;-80
2021/08/01 07:08:00;;;;;;;2.60;1.90;;;;;;;19.56;67.48;99778.25;5028638;28;20909;-78
2021/08/01 07:10:26;;;;;;;2.50;1.80;;;;;;;19.47;67.43;99786.47;5029536;28;20406;-80
2021/08/01 07:12:52;;;;;;;2.90;1.87;;;;;;;19.52;67.14;99789.06;5017373;28;20403;-79
2021/08/01 07:15:22;;;;;;;1.92;1.50;;;;;;;19.46;66.93;99784.06;5029716;28;20461;-79
2021/08/01 07:17:47;;;;;;;2.88;1.55;;;;;;;19.65;66.30;99782.63;5026949;28;20403;-80
2021/08/01 07:20:13;;;;;;;2.83;2.27;;;;;;;19.84;65.88;99785.06;5029871;28;20411;-80
2021/08/01 07:22:40;;;;;;;3.90;1.90;;;;;;;19.86;65.47;99791.03;5030084;28;20403;-81
2021/08/01 07:25:07;;;;;;;2.15;1.60;;;;;;;19.92;65.68;99781.50;5031408;28;20497;-80
2021/08/01 07:27:33;;;;;;;1.92;1.60;;;;;;;19.89;65.87;99773.91;5030758;28;20438;-80
2021/08/01 07:29:58;;;;;;;2.93;1.63;;;;;;;19.86;66.15;99785.53;5029911;28;20399;-79
2021/08/01 07:32:24;;;;;;;2.20;1.70;;;;;;;19.86;66.18;99784.72;5029174;28;21009;-80
2021/08/01 07:34:51;;;;;;;3.53;1.80;;;;;;;19.95;64.94;99772.63;5029381;28;21369;-80
2021/08/01 07:37:17;;;;;;;3.78;1.73;;;;;;;19.93;65.85;99776.81;5029497;28;20980;-79
2021/08/01 07:39:43;;;;;;;2.53;2.17;;;;;;;19.96;65.31;99773.41;5026698;28;20426;-80
2021/08/01 07:42:09;;;;;;;2.95;1.90;;;;;;;19.95;65.21;99778.13;5031441;28;20957;-79
2021/08/01 07:44:46;;;;;;;4.40;1.98;;;;;;;20.04;65.22;99780.88;5029026;28;20403;-80
2021/08/01 07:47:13;;;;;;;4.78;1.95;;;;;;;20.01;65.30;99776.84;5031989;28;20481;-79
2021/08/01 07:49:38;;;;;;;3.60;2.05;;;;;;;19.95;65.54;99786.38;5036017;28;20406;-79
2021/08/01 07:52:04;;;;;;;3.50;2.50;;;;;;;20.01;65.38;99789.78;5034268;28;20813;-79
2021/08/01 07:54:29;;;;;;;3.03;2.17;;;;;;;20.05;65.11;99791.56;5032757;28;20519;-79
2021/08/01 07:56:55;;;;;;;3.73;1.83;;;;;;;20.13;65.12;99795.44;5029962;28;20410;-79
2021/08/01 07:59:20;;;;;;;3.78;2.08;;;;;;;20.16;64.80;99798.34;5033207;28;20457;-80
2021/08/01 08:01:45;;;;;;;3.07;2.03;;;;;;;20.16;65.04;99801.09;5027574;28;20759;-79
2021/08/01 08:04:11;;;;;;;2.47;1.57;;;;;;;20.19;64.98;99794.13;5030573;28;20465;-80
2021/08/01 08:06:36;;;;;;;3.97;2.17;;;;;;;20.33;64.70;99805.00;5032158;28;20454;-79
2021/08/01 08:09:02;;;;;;;2.80;2.07;;;;;;;20.42;63.96;99800.28;5032354;28;20815;-79
2021/08/01 08:11:28;;;;;;;3.00;1.83;;;;;;;20.36;64.70;99799.66;5015538;28;20426;-78
2021/08/01 08:13:53;;;;;;;2.40;1.53;;;;;;;20.46;64.16;99804.81;5031828;28;20857;-79
2021/08/01 08:16:18;;;;;;;2.17;1.85;;;;;;;20.49;64.24;99815.19;5032803;28;20547;-78
2021/08/01 08:18:43;;;;;;;3.57;2.23;;;;;;;20.46;64.22;99813.09;5027681;28;20762;-79
2021/08/01 08:21:09;;;;;;;4.83;2.30;;;;;;;20.34;64.83;99815.69;5033181;28;20760;-79
2021/08/01 08:23:34;;;;;;;2.50;1.97;;;;;;;20.43;64.72;99819.25;5032530;28;20414;-78
2021/08/01 08:26:01;;;;;;;2.17;1.97;;;;;;;20.49;64.65;99823.44;5033028;28;20423;-79
2021/08/01 08:28:26;;;;;;;3.38;1.80;;;;;;;20.54;64.36;99819.72;5032361;28;20494;-79
2021/08/01 08:30:51;;;;;;;4.23;2.23;;;;;;;20.56;63.56;99829.25;5031524;28;20790;-80
2021/08/01 08:33:17;;;;;;;2.90;2.22;;;;;;;20.63;63.77;99823.25;5031952;28;20921;-78
2021/08/01 08:35:42;;;;;;;2.93;2.10;;;;;;;20.60;64.29;99827.47;5030675;28;20403;-77
2021/08/01 08:38:07;;;;;;;2.73;2.00;;;;;;;20.70;64.50;99827.13;5032645;28;20433;-79
2021/08/01 08:40:37;;;;;;;3.30;2.10;;;;;;;20.71;64.08;99820.47;5032113;28;20494;-80
2021/08/01 08:43:03;;;;;;;2.90;2.00;;;;;;;20.70;64.63;99818.88;5032548;28;20520;-79
2021/08/01 08:45:28;;;;;;;3.05;2.20;;;;;;;20.62;64.67;99822.44;5032209;28;20438;-79
2021/08/01 08:47:55;;;;;;;3.83;2.40;;;;;;;20.73;63.95;99824.84;5032395;28;20403;-79
2021/08/01 08:50:21;;;;;;;4.15;2.78;;;;;;;20.78;63.32;99821.94;5042715;28;20938;-79
2021/08/01 08:52:47;;;;;;;2.93;2.47;;;;;;;20.78;63.52;99822.72;5032486;28;20490;-80
2021/08/01 08:55:15;;;;;;;5.30;2.63;;;;;;;20.81;63.53;99819.34;5035880;28;20414;-79
2021/08/01 08:57:50;;;;;;;4.85;2.22;;;;;;;20.71;63.97;99827.94;5031491;28;20747;-79
2021/08/01 09:00:16;;;;;;;5.35;3.15;;;;;;;20.75;64.09;99833.63;5030095;28;20430;-79
2021/08/01 09:02:42;;;;;;;4.18;2.53;;;;;;;20.93;63.59;99827.72;5032469;28;20971;-79
2021/08/01 09:05:09;;;;;;;2.85;2.65;;;;;;;20.96;63.81;99823.50;5031339;28;20403;-79
2021/08/01 09:07:35;;;;;;;4.22;2.55;;;;;;;21.14;63.24;99831.41;5029753;28;20403;-78
2021/08/01 09:10:01;;;;;;;4.07;2.80;;;;;;;21.16;62.85;99825.56;5011459;28;20400;-78
2021/08/01 09:12:26;;;;;;;6.53;2.37;;;;;;;21.13;62.78;99835.31;5031993;28;20407;-80
2021/08/01 09:15:18;;;;;;;3.40;2.73;;;;;;;21.13;62.85;99837.25;5012715;28;20415;-79
2021/08/01 09:17:46;;;;;;;5.45;2.35;;;;;;;21.26;62.39;99833.47;5031657;28;20403;-79
2021/08/01 09:20:25;;;;;;;4.15;2.33;;;;;;;21.38;61.94;99839.09;5032726;28;20837;-78
2021/08/01 09:22:59;;;;;;;2.42;2.17;;;;;;;21.26;62.70;99835.41;5028948;28;20430;-79
2021/08/01 09:25:28;;;;;;;2.78;2.25;;;;;;;21.19;62.77;99844.19;5030028;28;20448;-79
2021/08/01 09:28:08;;;;;;;2.55;2.35;;;;;;;21.26;61.62;99844.50;5031268;28;20403;-79
2021/08/01 09:31:00;;;;;;;3.60;2.60;;;;;;;21.35;62.03;99848.03;5023076;28;20773;-80
2021/08/01 09:33:41;;;;;;;4.05;2.30;;;;;;;21.28;61.90;99842.22;5014978;28;20407;-79
2021/08/01 09:36:08;;;;;;;2.83;2.60;;;;;;;21.20;61.67;99845.81;5013604;28;20482;-80
2021/08/01 09:38:57;;;;;;;2.65;2.42;;;;;;;21.07;62.53;99849.56;5026725;28;20406;-80
2021/08/01 09:41:26;;;;;;;3.92;2.45;;;;;;;21.20;62.62;99851.34;5007929;28;20421;-80
2021/08/01 09:43:56;;;;;;;3.38;2.95;;;;;;;21.32;61.99;99853.38;5010809;28;20435;-80
2021/08/01 09:46:36;;;;;;;6.35;3.30;;;;;;;21.42;61.96;99855.78;5010829;28;20422;-79
2021/08/01 09:49:15;;;;;;;3.00;2.70;;;;;;;21.55;61.91;99858.31;5011619;28;20421;-80
2021/08/01 09:51:42;;;;;;;3.60;2.85;;;;;;;21.64;61.04;99849.97;5009773;28;20411;-79
2021/08/01 09:54:08;;;;;;;6.40;2.90;;;;;;;21.66;61.37;99856.81;5011007;28;20414;-80
2021/08/01 09:56:34;;;;;;;4.32;2.75;;;;;;;21.52;61.96;99856.22;5009388;28;20411;-80
2021/08/01 09:59:00;;;;;;;3.75;2.55;;;;;;;21.69;61.25;99853.38;5010430;28;20974;-80
2021/08/01 10:01:26;;;;;;;4.40;2.40;;;;;;;22.07;60.87;99847.78;5013336;28;20798;-80
2021/08/01 10:03:51;;;;;;;6.28;2.67;;;;;;;22.40;59.49;99838.75;5017607;28;20548;-80
2021/08/01 10:06:18;;;;;;;4.53;2.70;;;;;;;22.42;59.14;99847.53;5000007;28;20429;-81
2021/08/01 10:08:46;;;;;;;2.88;2.65;;;;;;;22.30;59.38;99839.16;5016833;28;20530;-80
2021/08/01 10:11:19;;;;;;;3.70;2.17;;;;;;;22.62;58.60;99838.41;5018825;28;20411;-80
2021/08/01 10:13:47;;;;;;;2.83;2.50;;;;;;;22.66;57.53;99836.59;5019690;28;20502;-81
2021/08/01 10:16:13;;;;;;;5.82;2.90;;;;;;;22.38;58.61;99833.59;5018960;28;23048;-80
2021/08/01 10:18:40;;;;;;;2.88;2.30;;;;;;;22.35;58.81;99834.28;5018530;28;20410;-80
2021/08/01 10:21:06;;;;;;;4.35;2.22;;;;;;;22.31;58.32;99824.22;5018492;28;20540;-80
2021/08/01 10:23:39;;;;;;;4.85;2.20;;;;;;;22.35;58.71;99825.97;5019415;28;20430;-80
2021/08/01 10:26:06;;;;;;;2.70;2.33;;;;;;;22.27;58.33;99829.63;5016725;28;20422;-79
2021/08/01 10:28:32;;;;;;;6.25;2.47;;;;;;;22.47;58.70;99831.56;5019246;28;21120;-78
2021/08/01 10:31:07;;;;;;;3.03;2.17;;;;;;;22.62;58.31;99825.38;5016965;28;20544;-79
2021/08/01 10:33:57;;;;;;;3.00;2.20;;;;;;;22.83;56.97;99824.56;5016261;28;20497;-79
2021/08/01 10:36:29;;;;;;;2.85;2.25;;;;;;;23.05;55.33;99824.16;5014312;28;20446;-78
2021/08/01 10:39:00;;;;;;;4.68;2.33;;;;;;;23.58;54.84;99818.44;5014795;28;20468;-78
2021/08/01 10:41:30;;;;;;;2.25;1.77;;;;;;;24.09;53.55;99825.19;5014289;28;20442;-77
2021/08/01 10:44:02;;;;;;;4.00;2.00;;;;;;;24.41;52.27;99826.16;5016033;28;20430;-77
2021/08/01 10:46:28;;;;;;;3.92;2.20;;;;;;;25.06;50.79;99824.00;5016154;28;20540;-78
2021/08/01 10:48:58;;;;;;;2.38;2.17;;;;;;;25.05;50.42;99819.63;5015868;28;20545;-79
2021/08/01 10:51:27;;;;;;;3.78;2.20;;;;;;;25.34;50.16;99821.13;5013697;28;20402;-78
2021/08/01 10:53:53;;;;;;;3.70;2.35;;;;;;;25.51;48.45;99826.34;5016814;28;20422;-76
2021/08/01 10:56:24;;;;;;;2.57;1.77;;;;;;;25.24;48.98;99814.97;5013118;28;20767;-78
2021/08/01 10:58:49;;;;;;;3.58;2.17;;;;;;;25.42;49.82;99812.66;5015294;28;20411;-78
2021/08/01 11:01:15;;;;;;;1.80;1.70;;;;;;;25.44;49.58;99810.31;5017799;28;20477;-79
2021/08/01 11:03:41;;;;;;;8.60;1.77;;;;;;;25.58;48.80;99812.66;5008915;28;20430;-79
2021/08/01 11:06:35;;;;;;;3.17;1.70;;;;;;;25.98;47.09;99812.38;5014356;28;20507;-79
2021/08/01 11:09:12;;;;;;;6.35;2.13;;;;;;;27.37;44.63;99800.03;5021164;28;21194;-79
2021/08/01 11:11:37;;;;;;;1.92;1.67;;;;;;;28.68;42.28;99809.06;5001760;28;20415;-80
2021/08/01 11:14:02;;;;;;;3.53;1.97;;;;;;;29.66;38.86;99802.81;5003746;28;20448;-79
2021/08/01 11:16:31;;;;;;;1.63;1.50;;;;;;;29.63;38.68;99794.41;5017246;28;20442;-79
2021/08/01 11:18:56;;;;;;;2.25;2.08;;;;;;;29.73;36.74;99794.47;5012895;28;20410;-79
2021/08/01 11:21:36;;;;;;;2.50;1.60;;;;;;;29.51;37.35;99789.91;5016652;28;20469;-80
2021/08/01 11:24:11;;;;;;;3.90;1.20;;;;;;;30.08;36.70;99793.09;5020845;28;20430;-79
2021/08/01 11:27:12;;;;;;;2.60;1.85;;;;;;;30.21;35.01;99785.97;5019036;28;20765;-78
2021/08/01 11:30:02;;;;;;;2.93;2.13;;;;;;;30.17;35.07;99777.56;5021646;28;20403;-78
2021/08/01 11:32:48;;;;;;;1.90;1.80;;;;;;;30.25;34.47;99772.81;5020753;28;20457;-79
2021/08/01 11:35:17;;;;;;;2.17;1.60;;;;;;;29.69;35.84;99771.31;5020622;28;20770;-78
2021/08/01 11:37:42;;;;;;;1.67;1.58;;;;;;;30.20;35.91;99764.78;5021057;28;20498;-79